createdAt,value
2018-04-14T00:01:32.255Z,94.59
2018-04-14T00:04:01.295Z,94.11
2018-04-14T00:06:29.662Z,93.97
2018-04-14T00:08:57.934Z,93.86
2018-04-14T00:11:26.189Z,93.94
2018-04-14T00:13:54.460Z,94.50
2018-04-14T00:16:22.821Z,94.27
2018-04-14T00:18:51.855Z,94.73
2018-04-14T00:21:20.131Z,95.02
2018-04-14T00:23:48.765Z,94.09
2018-04-14T00:26:17.794Z,94.46
2018-04-14T00:28:46.084Z,94.47
2018-04-14T00:31:14.486Z,94.98
2018-04-14T00:33:42.746Z,95.34
2018-04-14T00:36:11.019Z,95.29
2018-04-14T00:38:39.301Z,95.56
2018-04-14T00:41:07.568Z,95.72
2018-04-14T00:43:35.833Z,95.14
2018-04-14T00:46:04.114Z,95.31
2018-04-14T00:48:32.360Z,94.91
2018-04-14T00:51:00.636Z,94.34
2018-04-14T00:53:49.630Z,94.94
2018-04-14T00:56:17.922Z,94.66
2018-04-14T00:58:46.198Z,94.67
2018-04-14T01:01:14.504Z,94.95
2018-04-14T01:03:43.541Z,94.75
2018-04-14T01:06:11.830Z,94.72
2018-04-14T01:08:40.102Z,94.60
2018-04-14T01:11:08.374Z,94.63
2018-04-14T01:13:36.659Z,94.96
2018-04-14T01:16:04.929Z,94.57
2018-04-14T01:18:33.209Z,94.97
2018-04-14T01:21:01.524Z,95.31
2018-04-14T01:23:30.574Z,94.79
2018-04-14T01:25:58.828Z,94.85
2018-04-14T01:28:27.119Z,94.61
2018-04-14T01:30:55.355Z,95.21
2018-04-14T01:33:23.649Z,94.54
2018-04-14T01:35:52.186Z,94.34
2018-04-14T01:38:20.450Z,94.20
2018-04-14T01:40:48.757Z,93.78
2018-04-14T01:43:17.018Z,93.58
2018-04-14T01:45:46.066Z,92.81
2018-04-14T01:48:14.344Z,92.81
2018-04-14T01:50:42.620Z,92.71
2018-04-14T01:53:10.888Z,93.40
2018-04-14T01:55:39.172Z,93.13
2018-04-14T01:58:07.448Z,93.51
2018-04-14T02:00:35.714Z,93.73
2018-04-14T02:03:03.997Z,93.93
2018-04-14T02:05:32.247Z,94.36
2018-04-14T02:08:00.621Z,94.22
2018-04-14T02:10:28.895Z,94.69
2018-04-14T02:12:57.494Z,94.43
2018-04-14T02:15:25.767Z,93.52
2018-04-14T02:17:54.013Z,92.68
2018-04-14T02:20:22.293Z,91.38
2018-04-14T02:22:50.546Z,91.75
2018-04-14T02:25:19.583Z,91.98
2018-04-14T02:27:47.836Z,91.31
2018-04-14T02:30:16.109Z,91.48
2018-04-14T02:32:44.382Z,90.71
2018-04-14T02:35:13.414Z,90.72
2018-04-14T02:37:41.679Z,89.75
2018-04-14T02:40:09.950Z,88.55
2018-04-14T02:42:38.206Z,88.84
2018-04-14T02:45:06.481Z,87.50
2018-04-14T02:47:34.756Z,87.79
2018-04-14T02:50:03.036Z,87.21
2018-04-14T02:52:31.319Z,86.79
2018-04-14T02:57:34.145Z,85.99
2018-04-14T03:00:02.424Z,87.20
2018-04-14T03:02:30.678Z,87.22
2018-04-14T03:04:58.941Z,87.56
2018-04-14T03:07:27.220Z,85.81
2018-04-14T03:09:55.503Z,85.31
2018-04-14T03:12:23.800Z,86.53
2018-04-14T03:14:52.053Z,87.06
2018-04-14T03:17:20.322Z,86.56
2018-04-14T03:19:48.593Z,86.20
2018-04-14T03:22:16.876Z,86.12
2018-04-14T03:24:45.134Z,86.95
2018-04-14T03:27:13.529Z,86.70
2018-04-14T03:29:41.816Z,86.46
2018-04-14T03:32:10.077Z,87.68
2018-04-14T03:34:38.349Z,86.72
2018-04-14T03:37:06.627Z,87.16
2018-04-14T03:39:34.910Z,86.57
2018-04-14T03:42:03.560Z,87.42
2018-04-14T03:44:31.844Z,86.26
2018-04-14T03:47:00.105Z,86.62
2018-04-14T03:49:28.412Z,86.90
2018-04-14T03:51:56.676Z,88.66
2018-04-14T03:54:24.970Z,89.29
2018-04-14T03:56:53.235Z,88.64
2018-04-14T03:59:21.505Z,88.38
2018-04-14T04:01:49.820Z,88.78
2018-04-14T04:04:18.077Z,88.85
2018-04-14T04:06:46.329Z,90.17
2018-04-14T04:09:14.594Z,89.37
2018-04-14T04:11:42.861Z,89.65
2018-04-14T04:14:11.118Z,90.12
2018-04-14T04:16:40.169Z,90.54
2018-04-14T04:19:26.187Z,90.82
2018-04-14T04:22:13.195Z,90.90
2018-04-14T04:24:59.287Z,91.69
2018-04-14T04:27:27.630Z,91.63
2018-04-14T04:29:55.908Z,92.06
2018-04-14T04:32:24.154Z,93.18
2018-04-14T04:34:52.452Z,92.38
2018-04-14T04:37:20.699Z,92.64
2018-04-14T04:39:48.974Z,93.05
2018-04-14T04:42:17.256Z,93.11
2018-04-14T04:44:45.533Z,93.06
2018-04-14T04:47:13.803Z,92.82
2018-04-14T04:49:42.066Z,92.88
2018-04-14T04:52:11.478Z,92.52
2018-04-14T04:54:39.738Z,91.91
2018-04-14T04:57:08.801Z,91.64
2018-04-14T04:59:37.153Z,91.65
2018-04-14T05:02:05.446Z,91.67
2018-04-14T05:04:33.712Z,90.70
2018-04-14T05:07:02.008Z,90.19
2018-04-14T05:09:30.290Z,89.65
2018-04-14T05:11:58.554Z,89.15
2018-04-14T05:14:26.813Z,88.13
2018-04-14T05:16:55.133Z,88.88
2018-04-14T05:19:24.166Z,88.10
2018-04-14T05:21:52.479Z,86.08
2018-04-14T05:24:20.735Z,87.34
2018-04-14T05:26:49.022Z,86.53
2018-04-14T05:29:17.289Z,87.31
2018-04-14T05:31:45.634Z,85.33
2018-04-14T05:34:14.345Z,86.46
2018-04-14T05:36:42.618Z,85.94
2018-04-14T05:39:10.897Z,85.03
2018-04-14T05:41:39.150Z,84.93
2018-04-14T05:44:07.440Z,86.70
2018-04-14T05:46:35.762Z,84.68
2018-04-14T05:49:04.816Z,84.14
2018-04-14T05:51:33.125Z,85.78
2018-04-14T05:54:02.253Z,84.91
2018-04-14T05:56:30.525Z,85.31
2018-04-14T05:58:58.826Z,85.39
2018-04-14T06:01:27.097Z,84.20
2018-04-14T06:03:55.378Z,86.15
2018-04-14T06:06:23.651Z,84.59
2018-04-14T06:08:51.907Z,84.18
2018-04-14T06:11:20.196Z,84.41
2018-04-14T06:13:48.453Z,83.44
2018-04-14T06:16:16.866Z,84.21
2018-04-14T06:18:45.130Z,84.38
2018-04-14T06:21:13.425Z,85.15
2018-04-14T06:23:41.690Z,83.53
2018-04-14T06:26:09.977Z,84.79
2018-04-14T06:28:38.286Z,85.14
2018-04-14T06:31:07.340Z,83.32
2018-04-14T06:33:35.655Z,83.79
2018-04-14T06:36:04.695Z,83.11
2018-04-14T06:38:33.010Z,81.67
2018-04-14T06:41:01.291Z,81.02
2018-04-14T06:43:30.567Z,73.84
2018-04-14T06:45:58.886Z,75.18
2018-04-14T06:48:27.157Z,74.20
2018-04-14T06:50:55.451Z,73.67
2018-04-14T06:53:23.746Z,74.15
2018-04-14T06:55:52.040Z,72.76
2018-04-14T06:58:20.304Z,74.24
2018-04-14T07:00:48.610Z,73.64
2018-04-14T07:03:16.863Z,70.15
2018-04-14T07:05:45.229Z,70.03
2018-04-14T07:08:13.528Z,70.78
2018-04-14T07:10:42.046Z,70.72
2018-04-14T07:13:10.520Z,70.71
2018-04-14T07:15:39.579Z,70.60
2018-04-14T07:18:07.853Z,70.00
2018-04-14T07:20:36.913Z,68.15
2018-04-14T07:23:05.171Z,68.70
2018-04-14T07:25:33.463Z,69.15
2018-04-14T07:28:01.732Z,69.81
2018-04-14T07:30:30.005Z,68.97
2018-04-14T07:32:58.294Z,67.21
2018-04-14T07:35:26.584Z,66.80
2018-04-14T07:37:54.880Z,67.24
2018-04-14T07:40:23.487Z,66.03
2018-04-14T07:42:52.518Z,66.61
2018-04-14T07:45:20.787Z,65.71
2018-04-14T07:47:49.066Z,64.86
2018-04-14T07:50:17.322Z,64.87
2018-04-14T07:52:45.819Z,66.39
2018-04-14T07:55:14.198Z,64.66
2018-04-14T07:57:42.488Z,64.53
2018-04-14T08:00:10.766Z,64.38
2018-04-14T08:02:39.231Z,64.61
2018-04-14T08:05:07.778Z,65.12
2018-04-14T08:07:36.544Z,65.33
2018-04-14T08:10:06.020Z,63.89
2018-04-14T08:12:39.752Z,63.28
2018-04-14T08:15:08.958Z,63.60
2018-04-14T08:17:37.578Z,66.12
2018-04-14T08:20:06.468Z,65.09
2018-04-14T08:22:35.825Z,63.70
2018-04-14T08:25:04.484Z,64.38
2018-04-14T08:27:33.479Z,64.72
2018-04-14T08:30:02.180Z,63.90
2018-04-14T08:32:31.572Z,63.38
2018-04-14T08:35:00.896Z,64.48
2018-04-14T08:37:30.276Z,63.84
2018-04-14T08:39:59.005Z,62.96
2018-04-14T08:42:27.545Z,62.54
2018-04-14T08:44:56.888Z,63.24
2018-04-14T08:47:25.210Z,63.16
2018-04-14T08:49:53.600Z,63.21
2018-04-14T08:52:23.321Z,62.88
2018-04-14T08:54:51.955Z,62.98
2018-04-14T08:57:20.507Z,62.75
2018-04-14T08:59:49.106Z,61.57
2018-04-14T09:02:18.103Z,62.24
2018-04-14T09:04:46.417Z,62.91
2018-04-14T09:07:16.055Z,62.32
2018-04-14T09:09:44.746Z,60.91
2018-04-14T09:12:13.155Z,60.80
2018-04-14T09:14:41.965Z,60.86
2018-04-14T09:17:10.433Z,59.11
2018-04-14T09:19:39.325Z,55.70
2018-04-14T09:22:08.198Z,53.40
2018-04-14T09:24:37.030Z,51.17
2018-04-14T09:27:05.670Z,49.12
2018-04-14T09:29:34.160Z,45.88
2018-04-14T09:32:02.487Z,43.56
2018-04-14T09:34:31.540Z,44.13
2018-04-14T09:37:00.183Z,43.34
2018-04-14T09:39:28.959Z,41.52
2018-04-14T09:41:57.481Z,41.99
2018-04-14T09:44:27.089Z,41.79
2018-04-14T09:46:55.475Z,40.51
2018-04-14T09:49:23.830Z,42.53
2018-04-14T09:51:52.165Z,38.74
2018-04-14T09:54:20.466Z,37.93
2018-04-14T09:56:48.765Z,38.46
2018-04-14T09:59:17.066Z,40.38
2018-04-14T10:01:51.274Z,37.96
2018-04-14T10:04:19.592Z,38.75
2018-04-14T10:06:48.624Z,40.01
2018-04-14T10:09:16.900Z,37.96
2018-04-14T10:11:45.172Z,39.74
2018-04-14T10:14:13.457Z,36.90
2018-04-14T10:16:41.728Z,36.42
2018-04-14T10:19:10.030Z,37.49
2018-04-14T10:21:39.275Z,36.98
2018-04-14T10:24:07.565Z,38.23
2018-04-14T10:26:35.938Z,38.41
2018-04-14T10:29:04.217Z,37.52
2018-04-14T10:31:32.584Z,34.47
2018-04-14T10:34:01.097Z,35.70
2018-04-14T10:36:29.434Z,35.12
2018-04-14T10:38:57.714Z,34.56
2018-04-14T10:41:25.997Z,35.23
2018-04-14T10:43:54.261Z,34.59
2018-04-14T10:46:22.565Z,34.50
2018-04-14T10:48:50.942Z,36.37
2018-04-14T10:51:19.243Z,34.15
2018-04-14T10:53:47.591Z,34.59
2018-04-14T10:56:15.873Z,34.42
2018-04-14T10:58:44.203Z,34.71
2018-04-14T11:01:12.708Z,35.69
2018-04-14T11:03:41.017Z,34.51
2018-04-14T11:06:09.288Z,32.99
2018-04-14T11:08:37.598Z,32.82
2018-04-14T11:11:06.622Z,33.29
2018-04-14T11:13:34.909Z,33.22
2018-04-14T11:16:03.192Z,32.70
2018-04-14T11:18:31.557Z,34.14
2018-04-14T11:20:59.822Z,33.23
2018-04-14T11:23:28.130Z,32.58
2018-04-14T11:25:56.386Z,34.48
2018-04-14T11:28:24.741Z,33.14
2018-04-14T11:30:53.124Z,32.71
2018-04-14T11:33:21.395Z,30.56
2018-04-14T11:35:49.680Z,32.54
2018-04-14T11:38:17.946Z,32.85
2018-04-14T11:40:46.244Z,33.78
2018-04-14T11:43:14.548Z,33.83
2018-04-14T11:45:42.821Z,30.52
2018-04-14T11:48:11.881Z,30.08
2018-04-14T11:50:40.259Z,34.24
2018-04-14T11:53:08.517Z,32.38
2018-04-14T11:55:36.807Z,32.78
2018-04-14T11:58:05.120Z,32.61
2018-04-14T12:00:33.418Z,31.19
2018-04-14T12:03:02.453Z,31.64
2018-04-14T12:05:30.737Z,30.65
2018-04-14T12:07:59.055Z,31.91
2018-04-14T12:10:27.352Z,32.46
2018-04-14T12:12:55.633Z,31.41
2018-04-14T12:15:23.969Z,30.82
2018-04-14T12:17:52.324Z,30.42
2018-04-14T12:20:20.659Z,31.56
2018-04-14T12:22:49.753Z,28.63
2018-04-14T12:25:18.844Z,30.89
2018-04-14T12:27:47.899Z,30.76
2018-04-14T12:30:16.164Z,30.70
2018-04-14T12:32:44.437Z,31.43
2018-04-14T12:35:12.786Z,30.67
2018-04-14T12:37:41.038Z,31.93
2018-04-14T12:40:10.098Z,31.44
2018-04-14T12:42:38.984Z,32.51
2018-04-14T12:45:07.249Z,32.67
2018-04-14T12:47:35.614Z,35.99
2018-04-14T12:50:03.874Z,35.02
2018-04-14T12:52:32.157Z,36.99
2018-04-14T12:55:00.439Z,38.01
2018-04-14T12:57:28.721Z,36.70
2018-04-14T12:59:57.041Z,38.23
2018-04-14T13:02:26.176Z,39.39
2018-04-14T13:04:54.460Z,38.32
2018-04-14T13:07:22.738Z,39.34
2018-04-14T13:09:51.409Z,38.54
2018-04-14T13:12:19.677Z,38.66
2018-04-14T13:14:47.986Z,38.79
2018-04-14T13:17:16.245Z,38.59
2018-04-14T13:19:44.572Z,37.20
2018-04-14T13:22:13.612Z,37.55
2018-04-14T13:24:41.913Z,37.15
2018-04-14T13:27:10.172Z,38.12
2018-04-14T13:29:38.996Z,38.84
2018-04-14T13:32:07.467Z,36.89
2018-04-14T13:34:35.811Z,38.84
2018-04-14T13:37:04.099Z,38.03
2018-04-14T13:39:32.405Z,37.65
2018-04-14T13:42:00.673Z,38.66
2018-04-14T13:44:28.981Z,39.33
2018-04-14T13:46:57.283Z,39.28
2018-04-14T13:49:25.545Z,38.43
2018-04-14T13:51:53.878Z,40.52
2018-04-14T13:54:22.209Z,38.50
2018-04-14T13:56:50.955Z,38.56
2018-04-14T13:59:20.014Z,38.22
2018-04-14T14:01:48.293Z,35.83
2018-04-14T14:04:16.564Z,38.53
2018-04-14T14:06:44.884Z,37.44
2018-04-14T14:09:13.261Z,36.34
2018-04-14T14:11:41.541Z,35.36
2018-04-14T14:14:09.829Z,35.14
2018-04-14T14:16:38.100Z,35.81
2018-04-14T14:19:06.364Z,35.68
2018-04-14T14:21:34.658Z,35.09
2018-04-14T14:24:02.937Z,36.03
2018-04-14T14:26:31.222Z,35.17
2018-04-14T14:28:59.802Z,35.58
2018-04-14T14:31:28.157Z,35.47
2018-04-14T14:33:56.429Z,35.66
2018-04-14T14:36:24.726Z,37.00
2018-04-14T14:38:52.993Z,38.22
2018-04-14T14:41:21.290Z,35.81
2018-04-14T14:43:49.544Z,36.62
2018-04-14T14:46:17.830Z,35.38
2018-04-14T14:48:46.130Z,37.48
2018-04-14T14:51:14.436Z,36.65
2018-04-14T14:53:43.474Z,37.91
2018-04-14T14:56:11.756Z,37.91
2018-04-14T14:58:40.023Z,38.24
2018-04-14T15:01:08.380Z,39.41
2018-04-14T15:03:36.654Z,38.41
2018-04-14T15:06:04.933Z,39.03
2018-04-14T15:08:33.234Z,37.44
2018-04-14T15:11:01.704Z,37.13
2018-04-14T15:13:29.998Z,37.24
2018-04-14T15:15:58.253Z,36.79
2018-04-14T15:18:26.619Z,37.15
2018-04-14T15:20:54.887Z,34.89
2018-04-14T15:23:23.173Z,36.46
2018-04-14T15:25:51.462Z,35.05
2018-04-14T15:28:19.808Z,35.79
2018-04-14T15:30:48.091Z,36.54
2018-04-14T15:33:16.387Z,36.03
2018-04-14T15:35:44.645Z,36.20
2018-04-14T15:38:12.945Z,36.58
2018-04-14T15:40:41.210Z,36.03
2018-04-14T15:43:09.496Z,35.78
2018-04-14T15:45:37.959Z,36.21
2018-04-14T15:48:06.553Z,36.21
2018-04-14T15:50:34.824Z,36.77
2018-04-14T15:53:03.083Z,36.91
2018-04-14T15:55:31.378Z,36.04
2018-04-14T15:57:59.651Z,36.57
2018-04-14T16:00:27.949Z,37.69
2018-04-14T16:02:56.259Z,38.12
2018-04-14T16:05:25.429Z,37.99
2018-04-14T16:07:53.737Z,37.65
2018-04-14T16:10:22.774Z,37.62
2018-04-14T16:12:51.044Z,36.58
2018-04-14T16:15:19.300Z,36.91
2018-04-14T16:17:47.599Z,38.78
2018-04-14T16:20:15.867Z,38.01
2018-04-14T16:22:44.142Z,36.60
2018-04-14T16:25:12.433Z,37.48
2018-04-14T16:27:40.789Z,37.05
2018-04-14T16:30:09.421Z,36.24
2018-04-14T16:32:37.732Z,36.17
2018-04-14T16:35:06.010Z,37.39
2018-04-14T16:37:34.493Z,37.81
2018-04-14T16:40:02.785Z,37.94
2018-04-14T16:42:31.062Z,38.80
2018-04-14T16:44:59.353Z,39.17
2018-04-14T16:47:28.026Z,38.81
2018-04-14T16:49:56.297Z,38.35
2018-04-14T16:52:24.557Z,39.01
2018-04-14T16:54:52.838Z,38.92
2018-04-14T16:57:21.155Z,39.30
2018-04-14T16:59:49.471Z,40.57
2018-04-14T17:02:18.696Z,40.24
2018-04-14T17:04:46.981Z,39.72
2018-04-14T17:07:15.340Z,39.56
2018-04-14T17:09:43.628Z,39.40
2018-04-14T17:12:12.067Z,40.15
2018-04-14T17:14:40.356Z,40.65
2018-04-14T17:17:08.651Z,40.73
2018-04-14T17:19:36.934Z,41.40
2018-04-14T17:22:05.225Z,41.44
2018-04-14T17:24:33.509Z,41.73
2018-04-14T17:27:01.821Z,41.78
2018-04-14T17:29:30.850Z,41.72
2018-04-14T17:31:59.134Z,42.15
2018-04-14T17:34:27.506Z,42.65
2018-04-14T17:36:55.783Z,42.92
2018-04-14T17:39:24.043Z,43.30
2018-04-14T17:41:52.337Z,43.67
2018-04-14T17:44:20.670Z,43.69
2018-04-14T17:46:48.892Z,44.79
2018-04-14T17:49:17.184Z,45.08
2018-04-14T17:51:45.477Z,46.60
2018-04-14T17:54:14.544Z,48.80
2018-04-14T17:56:42.899Z,50.36
2018-04-14T17:59:11.173Z,50.37
2018-04-14T18:01:39.457Z,50.86
2018-04-14T18:04:07.737Z,52.74
2018-04-14T18:06:39.980Z,51.56
2018-04-14T18:09:08.289Z,52.77
2018-04-14T18:11:37.384Z,54.21
2018-04-14T18:14:05.746Z,54.35
2018-04-14T18:16:34.078Z,55.01
2018-04-14T18:19:03.106Z,55.16
2018-04-14T18:21:31.398Z,55.39
2018-04-14T18:23:59.744Z,56.18
2018-04-14T18:26:28.035Z,56.49
2018-04-14T18:28:56.324Z,57.28
2018-04-14T18:31:24.605Z,57.26
2018-04-14T18:33:52.926Z,57.44
2018-04-14T18:36:21.475Z,58.26
2018-04-14T18:38:49.758Z,57.06
2018-04-14T18:41:18.353Z,57.32
2018-04-14T18:43:47.411Z,57.89
2018-04-14T18:46:15.683Z,57.22
2018-04-14T18:48:43.959Z,58.19
2018-04-14T18:51:12.274Z,57.92
2018-04-14T18:53:41.323Z,59.03
2018-04-14T18:56:09.633Z,59.17
2018-04-14T18:58:38.784Z,59.17
2018-04-14T19:01:07.061Z,59.64
2018-04-14T19:03:35.327Z,60.65
2018-04-14T19:06:03.625Z,61.40
2018-04-14T19:08:31.906Z,61.47
2018-04-14T19:11:00.207Z,61.99
2018-04-14T19:13:29.263Z,61.77
2018-04-14T19:15:57.559Z,62.03
2018-04-14T19:18:26.624Z,63.51
2018-04-14T19:20:54.907Z,63.75
2018-04-14T19:23:23.487Z,63.57
2018-04-14T19:25:51.844Z,63.58
2018-04-14T19:28:20.342Z,63.58
2018-04-14T19:30:48.644Z,63.72
2018-04-14T19:33:16.939Z,64.11
2018-04-14T19:35:45.985Z,64.72
2018-04-14T19:38:14.271Z,63.07
2018-04-14T19:40:42.545Z,62.69
2018-04-14T19:43:11.222Z,63.55
2018-04-14T19:45:39.503Z,63.39
2018-04-14T19:48:07.811Z,63.29
2018-04-14T19:50:36.100Z,63.63
2018-04-14T19:53:05.165Z,62.05
2018-04-14T19:55:33.510Z,61.48
2018-04-14T19:58:01.866Z,62.23
2018-04-14T20:00:30.889Z,54.49
2018-04-14T20:02:59.188Z,61.15
2018-04-14T20:05:27.808Z,60.65
2018-04-14T20:07:56.835Z,57.63
2018-04-14T20:10:25.158Z,58.87
2018-04-14T20:12:54.213Z,59.93
2018-04-14T20:15:22.575Z,60.91
2018-04-14T20:17:50.866Z,59.86
2018-04-14T20:20:19.194Z,61.02
2018-04-14T20:22:48.521Z,60.25
2018-04-14T20:25:16.917Z,60.68
2018-04-14T20:27:45.191Z,59.50
2018-04-14T20:30:13.478Z,58.58
2018-04-14T20:32:41.747Z,58.19
2018-04-14T20:35:10.127Z,60.83
2018-04-14T20:37:38.402Z,58.31
2018-04-14T20:40:06.728Z,58.33
2018-04-14T20:42:35.779Z,56.42
2018-04-14T20:45:04.131Z,53.07
2018-04-14T20:47:32.955Z,50.09
2018-04-14T20:50:01.259Z,49.11
2018-04-14T20:52:30.350Z,48.33
2018-04-14T20:54:59.394Z,47.73
2018-04-14T20:57:27.663Z,47.19
2018-04-14T20:59:55.964Z,46.81
2018-04-14T21:02:24.281Z,46.76
2018-04-14T21:04:52.564Z,47.01
2018-04-14T21:07:20.861Z,46.75
2018-04-14T21:09:49.153Z,46.20
2018-04-14T21:12:17.441Z,46.06
2018-04-14T21:14:46.134Z,46.24
2018-04-14T21:17:15.220Z,46.08
2018-04-14T21:19:43.572Z,46.41
2018-04-14T21:22:11.837Z,45.77
2018-04-14T21:24:40.353Z,46.16
2018-04-14T21:27:08.623Z,45.83
2018-04-14T21:29:37.696Z,46.16
2018-04-14T21:32:05.982Z,46.08
2018-04-14T21:34:34.458Z,46.32
2018-04-14T21:37:02.743Z,46.30
2018-04-14T21:39:31.736Z,46.24
2018-04-14T21:41:59.991Z,46.45
2018-04-14T21:44:28.343Z,46.64
2018-04-14T21:46:56.860Z,46.68
2018-04-14T21:49:25.176Z,46.83
2018-04-14T21:51:53.450Z,46.47
2018-04-14T21:54:21.800Z,46.56
2018-04-14T21:56:50.214Z,46.39
2018-04-14T21:59:18.526Z,46.36
2018-04-14T22:01:46.801Z,46.20
2018-04-14T22:04:15.111Z,46.45
2018-04-14T22:06:43.439Z,46.01
2018-04-14T22:09:11.790Z,46.03
2018-04-14T22:11:40.889Z,46.06
2018-04-14T22:14:09.158Z,45.68
2018-04-14T22:16:37.475Z,46.01
2018-04-14T22:19:05.758Z,45.86
2018-04-14T22:21:34.062Z,45.73
2018-04-14T22:24:02.341Z,45.77
2018-04-14T22:26:30.632Z,45.73
2018-04-14T22:28:59.745Z,46.12
2018-04-14T22:31:28.026Z,45.90
2018-04-14T22:33:56.531Z,46.06
2018-04-14T22:36:24.998Z,45.78
2018-04-14T22:38:53.296Z,46.02
2018-04-14T22:41:21.596Z,45.90
2018-04-14T22:43:50.789Z,45.48
2018-04-14T22:46:19.074Z,45.68
2018-04-14T22:48:47.389Z,45.97
2018-04-14T22:51:15.685Z,45.94
2018-04-14T22:53:44.114Z,45.60
2018-04-14T22:56:13.160Z,46.34
2018-04-14T22:58:41.839Z,45.71
2018-04-14T23:01:10.122Z,45.94
2018-04-14T23:03:38.379Z,45.97
2018-04-14T23:06:06.683Z,45.75
2018-04-14T23:08:34.941Z,46.02
2018-04-14T23:11:03.214Z,45.92
2018-04-14T23:13:31.485Z,46.93
2018-04-14T23:15:59.777Z,46.38
2018-04-14T23:18:28.062Z,46.07
2018-04-14T23:20:56.325Z,45.87
2018-04-14T23:23:24.615Z,45.60
2018-04-14T23:25:52.951Z,45.62
2018-04-14T23:28:21.979Z,45.74
2018-04-14T23:30:50.286Z,45.81
2018-04-14T23:33:19.338Z,45.34
2018-04-14T23:35:47.629Z,45.79
2018-04-14T23:38:17.447Z,44.79
2018-04-14T23:40:46.519Z,45.32
2018-04-14T23:43:14.795Z,45.56
2018-04-14T23:45:43.057Z,45.38
2018-04-14T23:48:11.341Z,45.73
2018-04-14T23:50:39.613Z,47.50
2018-04-14T23:53:07.932Z,48.07
2018-04-14T23:55:36.988Z,49.07
2018-04-14T23:58:05.277Z,49.64
